createdAt,value
2022-11-04T00:02:54.988Z,13.10
2022-11-04T00:08:16.339Z,12.92
2022-11-04T00:13:19.331Z,12.74
2022-11-04T00:18:22.412Z,12.61
2022-11-04T00:23:44.118Z,12.50
2022-11-04T00:28:47.270Z,12.42
2022-11-04T00:33:52.290Z,12.36
2022-11-04T00:38:55.330Z,12.33
2022-11-04T00:44:00.860Z,12.29
2022-11-04T00:49:03.841Z,13.37
2022-11-04T00:54:06.911Z,16.55
2022-11-04T00:59:13.487Z,17.03
2022-11-04T01:04:17.567Z,15.61
2022-11-04T01:09:20.508Z,14.80
2022-11-04T01:14:23.643Z,14.26
2022-11-04T01:19:26.635Z,13.86
2022-11-04T01:24:29.729Z,13.52
2022-11-04T01:29:32.734Z,13.24
2022-11-04T01:34:40.620Z,13.02
2022-11-04T01:39:46.359Z,12.82
2022-11-04T01:44:52.694Z,12.65
2022-11-04T01:50:03.692Z,12.53
2022-11-04T01:55:12.103Z,12.43
2022-11-04T02:00:16.578Z,12.35
2022-11-04T02:05:20.046Z,12.28
2022-11-04T02:10:26.524Z,12.24
2022-11-04T02:15:36.014Z,12.21
2022-11-04T02:21:11.269Z,13.43
2022-11-04T02:26:39.028Z,16.83
2022-11-04T02:32:08.951Z,16.36
2022-11-04T02:37:20.833Z,15.10
2022-11-04T02:42:35.798Z,14.45
2022-11-04T02:47:42.098Z,13.97
2022-11-04T02:52:58.623Z,13.59
2022-11-04T02:58:05.430Z,13.26
2022-11-04T03:03:25.475Z,13.00
2022-11-04T03:08:35.876Z,12.79
2022-11-04T03:13:50.304Z,12.62
2022-11-04T03:19:05.884Z,12.49
2022-11-04T03:24:08.910Z,12.39
2022-11-04T03:29:26.024Z,12.33
2022-11-04T03:34:30.192Z,12.26
2022-11-04T03:39:33.514Z,13.38
2022-11-04T03:44:36.556Z,16.68
2022-11-04T03:49:39.829Z,17.13
2022-11-04T03:54:42.961Z,15.75
2022-11-04T04:00:05.896Z,15.02
2022-11-04T04:05:21.825Z,14.49
2022-11-04T04:10:39.875Z,14.07
2022-11-04T04:15:48.459Z,13.71
2022-11-04T04:20:54.687Z,13.38
2022-11-04T04:26:22.098Z,13.12
2022-11-04T04:31:45.060Z,12.90
2022-11-04T04:36:57.317Z,12.73
2022-11-04T04:42:19.033Z,12.59
2022-11-04T04:47:24.810Z,12.45
2022-11-04T04:52:31.970Z,12.35
2022-11-04T04:57:35.287Z,12.26
2022-11-04T05:02:38.454Z,12.18
2022-11-04T05:07:41.987Z,13.31
2022-11-04T05:13:03.951Z,16.53
2022-11-04T05:18:07.301Z,16.55
2022-11-04T05:23:12.284Z,15.20
2022-11-04T05:28:15.214Z,14.46
2022-11-04T05:33:18.174Z,13.95
2022-11-04T05:38:21.232Z,13.53
2022-11-04T05:43:24.325Z,13.17
2022-11-04T05:48:27.953Z,12.90
2022-11-04T05:53:30.839Z,12.68
2022-11-04T05:58:33.963Z,12.50
2022-11-04T06:03:36.894Z,12.36
2022-11-04T06:08:44.894Z,12.23
2022-11-04T06:13:48.757Z,12.13
2022-11-04T06:18:52.757Z,12.06
2022-11-04T06:23:57.734Z,13.18
2022-11-04T06:29:00.720Z,16.44
2022-11-04T06:34:03.984Z,16.61
2022-11-04T06:39:07.023Z,15.24
2022-11-04T06:44:10.037Z,14.49
2022-11-04T06:49:15.492Z,13.98
2022-11-04T06:54:18.531Z,13.58
2022-11-04T06:59:21.594Z,13.26
2022-11-04T07:04:24.483Z,13.01
2022-11-04T07:09:27.363Z,12.81
2022-11-04T07:14:30.390Z,12.67
2022-11-04T07:19:33.346Z,12.56
2022-11-04T07:24:36.444Z,12.48
2022-11-04T07:29:39.430Z,12.44
2022-11-04T07:34:42.370Z,12.41
2022-11-04T07:39:45.292Z,12.40
2022-11-04T07:44:48.242Z,12.45
2022-11-04T07:49:51.462Z,12.52
2022-11-04T07:54:54.540Z,12.61
2022-11-04T07:59:57.495Z,12.70
2022-11-04T08:05:00.621Z,12.81
2022-11-04T08:10:04.081Z,12.94
2022-11-04T08:15:07.658Z,13.07
2022-11-04T08:20:10.934Z,13.22
2022-11-04T08:25:14.142Z,13.36
2022-11-04T08:30:17.509Z,13.51
2022-11-04T08:35:20.543Z,13.64
2022-11-04T08:40:24.753Z,13.79
2022-11-04T08:45:32.695Z,13.93
2022-11-04T08:50:36.834Z,14.05
2022-11-04T08:55:39.868Z,14.17
2022-11-04T09:00:43.262Z,14.31
2022-11-04T09:05:48.204Z,14.45
2022-11-04T09:10:51.223Z,14.57
2022-11-04T09:15:54.263Z,14.68
2022-11-04T09:21:01.092Z,14.79
2022-11-04T09:26:10.244Z,14.90
2022-11-04T09:31:18.563Z,14.99
2022-11-04T09:36:22.145Z,15.09
2022-11-04T09:41:43.981Z,15.19
2022-11-04T09:46:49.560Z,15.32
2022-11-04T09:51:55.606Z,15.42
2022-11-04T09:57:01.949Z,15.53
2022-11-04T10:02:07.842Z,15.64
2022-11-04T10:07:29.811Z,15.76
2022-11-04T10:12:44.790Z,15.91
2022-11-04T10:17:54.489Z,16.13
2022-11-04T10:23:34.786Z,16.86
2022-11-04T10:28:49.953Z,17.66
2022-11-04T10:34:04.645Z,18.22
2022-11-04T10:39:20.876Z,18.68
2022-11-04T10:44:29.961Z,19.11
2022-11-04T10:55:59.676Z,19.55
2022-11-04T11:01:29.980Z,19.52
2022-11-04T11:06:35.806Z,19.47
2022-11-04T11:11:48.651Z,19.34
2022-11-04T11:16:51.588Z,19.17
2022-11-04T11:21:57.401Z,19.06
2022-11-04T11:27:04.061Z,19.10
2022-11-04T11:32:25.423Z,19.09
2022-11-04T11:37:31.238Z,19.01
2022-11-04T11:42:34.739Z,18.87
2022-11-04T11:47:42.091Z,18.81
2022-11-04T11:52:46.412Z,18.83
2022-11-04T12:09:34.655Z,19.01
2022-11-04T12:14:59.580Z,19.06
2022-11-04T12:20:28.954Z,19.10
2022-11-04T12:25:40.743Z,19.11
2022-11-04T12:31:16.391Z,19.09
2022-11-04T12:36:42.682Z,19.08
2022-11-04T12:47:33.441Z,19.07
2022-11-04T12:52:45.517Z,19.06
2022-11-04T12:58:00.232Z,19.05
2022-11-04T13:03:41.625Z,19.02
2022-11-04T13:08:51.302Z,18.98
2022-11-04T13:14:04.421Z,18.96
2022-11-04T13:19:48.720Z,18.85
2022-11-04T13:24:57.095Z,18.68
2022-11-04T13:30:47.921Z,18.51
2022-11-04T13:36:04.383Z,18.33
2022-11-04T13:41:21.333Z,18.17
2022-11-04T13:46:38.145Z,18.02
2022-11-04T13:51:47.240Z,17.91
2022-11-04T13:56:50.275Z,17.79
2022-11-04T14:02:25.322Z,17.72
2022-11-04T14:07:57.120Z,17.62
2022-11-04T14:13:26.326Z,17.53
2022-11-04T14:18:40.483Z,17.46
2022-11-04T14:23:49.962Z,17.39
2022-11-04T14:29:08.517Z,17.33
2022-11-04T14:34:28.318Z,17.27
2022-11-04T14:39:42.394Z,17.22
2022-11-04T14:44:50.487Z,17.17
2022-11-04T14:50:19.394Z,17.12
2022-11-04T14:55:30.209Z,17.06
2022-11-04T15:00:40.874Z,17.00
2022-11-04T15:06:00.643Z,16.95
2022-11-04T15:11:41.788Z,16.90
2022-11-04T15:16:48.497Z,16.85
2022-11-04T15:21:51.550Z,16.79
2022-11-04T15:26:56.706Z,16.75
2022-11-04T15:32:04.679Z,16.71
2022-11-04T15:37:08.572Z,16.66
2022-11-04T15:42:36.746Z,16.63
2022-11-04T15:47:39.964Z,16.61
2022-11-04T15:52:50.695Z,16.56
2022-11-04T15:57:55.597Z,16.57
2022-11-04T16:03:00.106Z,16.67
2022-11-04T16:08:15.350Z,16.63
2022-11-04T16:13:23.196Z,16.54
2022-11-04T16:18:50.941Z,16.43
2022-11-04T16:24:02.344Z,16.33
2022-11-04T16:29:18.911Z,16.23
2022-11-04T16:34:21.804Z,16.13
2022-11-04T16:39:24.955Z,17.13
2022-11-04T16:44:28.083Z,20.14
2022-11-04T16:49:31.223Z,20.76
2022-11-04T16:54:34.208Z,19.29
2022-11-04T16:59:37.714Z,18.43
2022-11-04T17:04:40.592Z,17.85
2022-11-04T17:09:43.754Z,17.34
2022-11-04T17:14:46.659Z,16.94
2022-11-04T17:19:49.850Z,16.62
2022-11-04T17:24:52.809Z,16.37
2022-11-04T17:29:55.739Z,16.15
2022-11-04T17:34:58.704Z,15.96
2022-11-04T17:40:02.223Z,15.80
2022-11-04T17:45:05.421Z,16.88
2022-11-04T17:50:09.023Z,19.80
2022-11-04T17:55:16.737Z,19.44
2022-11-04T18:00:24.373Z,18.27
2022-11-04T18:05:27.330Z,17.66
2022-11-04T18:10:30.276Z,17.20
2022-11-04T18:15:33.231Z,16.81
2022-11-04T18:20:36.124Z,16.46
2022-11-04T18:25:40.161Z,16.16
2022-11-04T18:30:43.125Z,15.90
2022-11-04T18:35:49.102Z,15.69
2022-11-04T18:40:54.766Z,16.74
2022-11-04T18:45:57.657Z,19.66
2022-11-04T18:51:01.045Z,19.64
2022-11-04T18:56:09.557Z,18.23
2022-11-04T19:01:26.645Z,17.45
2022-11-04T19:06:32.857Z,16.89
2022-11-04T19:11:38.030Z,16.45
2022-11-04T19:16:44.225Z,16.08
2022-11-04T19:21:49.681Z,15.94
2022-11-04T19:26:52.751Z,18.64
2022-11-04T19:31:56.012Z,20.00
2022-11-04T19:36:58.929Z,18.55
2022-11-04T19:42:21.405Z,17.64
2022-11-04T19:47:26.956Z,16.98
2022-11-04T19:52:30.827Z,16.48
2022-11-04T19:57:34.346Z,16.07
2022-11-04T20:02:37.292Z,16.85
2022-11-04T20:07:40.246Z,19.68
2022-11-04T20:13:01.903Z,20.15
2022-11-04T20:18:05.272Z,18.52
2022-11-04T20:23:08.984Z,17.58
2022-11-04T20:28:12.135Z,16.90
2022-11-04T20:33:15.289Z,16.36
2022-11-04T20:38:18.313Z,15.90
2022-11-04T20:43:21.230Z,15.54
2022-11-04T20:48:24.134Z,16.47
2022-11-04T20:53:27.181Z,19.33
2022-11-04T20:58:30.961Z,19.89
2022-11-04T21:03:34.165Z,18.33
2022-11-04T21:08:37.940Z,17.37
2022-11-04T21:13:41.127Z,16.72
2022-11-04T21:18:44.229Z,16.17
2022-11-04T21:23:47.206Z,15.70
2022-11-04T21:28:54.934Z,16.58
2022-11-04T21:33:58.138Z,19.34
2022-11-04T21:39:01.161Z,19.86
2022-11-04T21:44:08.430Z,18.30
2022-11-04T21:49:12.768Z,17.35
2022-11-04T21:54:16.029Z,16.73
2022-11-04T21:59:19.053Z,16.22
2022-11-04T22:04:21.970Z,15.78
2022-11-04T22:09:25.137Z,16.70
2022-11-04T22:14:28.774Z,19.51
2022-11-04T22:19:31.682Z,19.87
2022-11-04T22:24:34.720Z,18.31
2022-11-04T22:29:37.583Z,17.38
2022-11-04T22:34:40.441Z,16.73
2022-11-04T22:39:43.341Z,16.19
2022-11-04T22:44:46.240Z,16.97
2022-11-04T22:49:49.157Z,19.66
2022-11-04T22:54:52.214Z,19.47
2022-11-04T22:59:55.195Z,18.02
2022-11-04T23:04:58.079Z,17.15
2022-11-04T23:10:19.600Z,16.55
2022-11-04T23:15:41.463Z,16.01
2022-11-04T23:20:44.407Z,16.95
2022-11-04T23:25:47.507Z,19.70
2022-11-04T23:30:52.212Z,19.42
2022-11-04T23:36:13.686Z,17.94
2022-11-04T23:41:35.291Z,17.07
2022-11-04T23:46:57.001Z,16.45
2022-11-04T23:52:18.669Z,15.95
2022-11-04T23:57:40.204Z,16.96
